Time;durP1;ratioP1;P1;durP2;ratioP2;P2;SDS_P1;SDS_P2;PMS_P1;PMS_P2;Temp;Humidity;BMP_temperature;BMP_pressure;BME280_temperature;BME280_humidity;BME280_pressure;Samples;Min_cycle;Max_cycle;Signal;HPM_P1;HPM_P2
2022/12/07 00:01:43;;;;;;;31.90;20.12;;;;;;;1.11;96.76;99562.39;1823490;78;25665;-58
2022/12/07 00:04:17;;;;;;;35.90;20.88;;;;;;;1.09;96.72;99554.66;1823591;78;25592;-58
2022/12/07 00:06:49;;;;;;;33.18;21.27;;;;;;;1.10;96.72;99558.11;1823489;78;29467;-54
2022/12/07 00:09:17;;;;;;;36.58;22.22;;;;;;;1.09;96.76;99554.66;1823313;78;25757;-59
2022/12/07 00:11:51;;;;;;;37.10;20.92;;;;;;;1.08;96.79;99544.26;1823526;78;25626;-58
2022/12/07 00:14:19;;;;;;;37.85;22.17;;;;;;;1.09;96.81;99543.18;1823515;78;25790;-57
2022/12/07 00:16:48;;;;;;;42.43;24.82;;;;;;;1.06;96.65;99545.85;1823515;78;25367;-58
2022/12/07 00:19:14;;;;;;;35.48;21.60;;;;;;;1.07;96.80;99539.98;1823696;78;27329;-57
2022/12/07 00:21:42;;;;;;;39.33;22.37;;;;;;;1.05;96.72;99531.47;1823376;78;25528;-57
2022/12/07 00:24:12;;;;;;;41.73;23.18;;;;;;;1.03;96.80;99529.06;1823501;78;25573;-57
2022/12/07 00:26:42;;;;;;;41.45;24.82;;;;;;;1.01;96.64;99525.88;1823618;78;25647;-57
2022/12/07 00:29:24;;;;;;;42.73;23.47;;;;;;;0.98;96.64;99541.58;1823500;78;25589;-57
2022/12/07 00:31:50;;;;;;;41.28;22.52;;;;;;;0.95;96.80;99536.23;1823557;78;27907;-57
2022/12/07 00:34:21;;;;;;;45.60;24.60;;;;;;;0.94;96.91;99535.98;1823375;78;25536;-58
2022/12/07 00:36:49;;;;;;;49.00;26.35;;;;;;;0.92;96.95;99537.58;1823478;78;25383;-57
2022/12/07 00:39:17;;;;;;;48.08;27.60;;;;;;;0.92;97.08;99536.78;1823452;78;25631;-57
2022/12/07 00:41:43;;;;;;;52.80;27.25;;;;;;;0.91;97.18;99531.97;1823502;78;25378;-58
2022/12/07 00:44:09;;;;;;;55.33;27.58;;;;;;;0.90;97.12;99539.70;1823464;78;27988;-58
2022/12/07 00:46:36;;;;;;;48.63;27.48;;;;;;;0.90;97.20;99533.05;1823362;78;25363;-59
2022/12/07 00:49:03;;;;;;;47.93;26.35;;;;;;;0.91;97.27;99536.50;1823415;78;25387;-58
2022/12/07 00:51:30;;;;;;;56.70;27.90;;;;;;;0.90;97.36;99534.38;1823450;78;25624;-57
2022/12/07 00:53:56;;;;;;;51.83;26.55;;;;;;;0.91;97.35;99529.84;1820356;78;25410;-58
2022/12/07 00:56:29;;;;;;;47.88;27.90;;;;;;;0.91;97.36;99531.18;1806277;79;27281;-54
2022/12/07 00:59:00;;;;;;;48.17;26.45;;;;;;;0.90;97.35;99529.05;1806204;78;25717;-58
2022/12/07 01:01:31;;;;;;;48.83;27.25;;;;;;;0.90;97.43;99530.39;1806281;79;25550;-59
2022/12/07 01:04:00;;;;;;;50.78;27.48;;;;;;;0.91;97.46;99531.18;1806269;79;25624;-58
2022/12/07 01:06:29;;;;;;;42.25;25.02;;;;;;;0.92;97.48;99528.25;1806464;79;25534;-58
2022/12/07 01:08:56;;;;;;;49.50;25.75;;;;;;;0.92;97.48;99528.80;1806333;79;27413;-58
2022/12/07 01:11:28;;;;;;;45.75;26.37;;;;;;;0.92;97.43;99530.92;1806129;79;27160;-57
2022/12/07 01:13:58;;;;;;;48.63;26.62;;;;;;;0.92;97.39;99534.91;1806296;79;25527;-59
2022/12/07 01:16:29;;;;;;;51.18;27.35;;;;;;;0.91;97.40;99533.84;1806297;78;26139;-58
2022/12/07 01:18:58;;;;;;;48.25;26.35;;;;;;;0.88;97.36;99533.03;1806337;79;25612;-58
2022/12/07 01:21:37;;;;;;;44.98;25.23;;;;;;;0.86;97.40;99523.97;1806437;79;27461;-58
2022/12/07 01:24:09;;;;;;;43.20;25.08;;;;;;;0.86;97.53;99531.17;1806337;79;25631;-59
2022/12/07 01:26:36;;;;;;;45.20;24.52;;;;;;;0.85;97.63;99525.05;1806269;79;25431;-58
2022/12/07 01:29:03;;;;;;;50.10;25.37;;;;;;;0.85;97.75;99523.72;1806181;79;26376;-58
2022/12/07 01:31:30;;;;;;;46.95;25.55;;;;;;;0.85;97.81;99516.24;1806349;79;25455;-58
2022/12/07 01:34:00;;;;;;;48.73;26.52;;;;;;;0.84;97.85;99519.98;1806290;79;27385;-58
2022/12/07 01:36:32;;;;;;;47.35;26.07;;;;;;;0.87;98.00;99523.44;1806250;79;25575;-59
2022/12/07 01:39:04;;;;;;;48.80;25.70;;;;;;;0.86;98.00;99517.31;1806334;79;25458;-56
2022/12/07 01:41:36;;;;;;;41.42;24.30;;;;;;;0.87;98.07;99516.77;1806249;79;25641;-59
2022/12/07 01:44:22;;;;;;;47.93;26.15;;;;;;;0.88;98.12;99517.05;1806298;79;25620;-58
2022/12/07 01:46:56;;;;;;;49.18;27.05;;;;;;;0.87;98.14;99521.59;1800183;79;27384;-54
2022/12/07 01:49:43;;;;;;;46.80;26.10;;;;;;;0.89;98.32;99512.02;1806246;79;25607;-57
2022/12/07 01:52:29;;;;;;;45.63;25.15;;;;;;;0.90;98.47;99514.92;1806276;79;25624;-58
2022/12/07 01:55:01;;;;;;;51.58;27.67;;;;;;;0.92;98.54;99510.16;1770076;80;25531;-58
2022/12/07 01:57:31;;;;;;;52.40;27.75;;;;;;;0.92;98.52;99507.49;1779750;80;25664;-55
2022/12/07 01:59:58;;;;;;;;;;;;;;;0.93;98.55;99502.42;1782348;80;27523;-58
2022/12/07 02:02:39;;;;;;;47.55;25.68;;;;;;;0.95;98.63;99504.82;1779633;80;25568;-59
2022/12/07 02:05:07;;;;;;;47.88;26.23;;;;;;;0.95;98.71;99498.95;1778623;80;25640;-58
2022/12/07 02:07:38;;;;;;;46.05;27.85;;;;;;;0.96;98.67;99498.44;1779771;80;25626;-58
2022/12/07 02:10:19;;;;;;;48.90;27.02;;;;;;;0.93;98.69;99492.55;1779813;80;25596;-57
2022/12/07 02:13:04;;;;;;;52.40;30.12;;;;;;;0.97;98.81;99494.19;1776778;80;27496;-58
2022/12/07 02:15:44;;;;;;;51.40;29.65;;;;;;;0.97;98.83;99490.70;1779740;80;25456;-58
2022/12/07 02:18:25;;;;;;;49.00;27.37;;;;;;;0.99;98.92;99492.56;1767836;80;25571;-58
2022/12/07 02:21:09;;;;;;;50.38;27.15;;;;;;;1.01;98.99;99495.78;1777683;80;25627;-58
2022/12/07 02:23:50;;;;;;;48.52;26.93;;;;;;;1.02;99.11;99490.70;1779709;80;25624;-58
2022/12/07 02:26:42;;;;;;;48.80;27.50;;;;;;;1.04;99.18;99491.23;1779696;80;27327;-58
2022/12/07 02:29:20;;;;;;;51.23;27.75;;;;;;;1.07;99.22;99485.38;1779072;80;25643;-59
2022/12/07 02:32:22;;;;;;;51.20;27.30;;;;;;;1.09;99.26;99488.06;1805331;78;25580;-58
2022/12/07 02:35:03;;;;;;;48.68;26.05;;;;;;;1.10;99.21;99484.31;1823422;78;25610;-57
2022/12/07 02:37:39;;;;;;;51.15;28.05;;;;;;;1.11;99.25;99484.59;1823442;78;25559;-60
2022/12/07 02:40:24;;;;;;;53.10;28.45;;;;;;;1.15;99.32;99482.73;1823419;78;27294;-59
2022/12/07 02:43:02;;;;;;;49.50;27.60;;;;;;;1.15;99.38;99481.41;1822019;78;25506;-58
2022/12/07 02:45:32;;;;;;;47.90;26.68;;;;;;;1.18;99.46;99475.55;1820035;78;25393;-58
2022/12/07 02:48:00;;;;;;;52.10;28.10;;;;;;;1.20;99.53;99476.08;1823398;78;25743;-58
2022/12/07 02:50:28;;;;;;;52.08;28.45;;;;;;;1.23;99.65;99479.01;1823432;78;25587;-58
2022/12/07 02:52:56;;;;;;;45.38;25.50;;;;;;;1.25;99.66;99475.54;1823380;78;28091;-58
2022/12/07 02:55:28;;;;;;;47.15;26.05;;;;;;;1.26;99.66;99471.00;1814041;78;27218;-58
2022/12/07 02:58:09;;;;;;;40.90;24.67;;;;;;;1.30;99.70;99471.54;1806318;78;25523;-61
2022/12/07 03:00:59;;;;;;;39.55;23.40;;;;;;;1.32;99.76;99472.61;1763386;80;25616;-59
2022/12/07 03:03:27;;;;;;;39.05;23.12;;;;;;;1.34;99.66;99476.34;1696604;84;25490;-58
2022/12/07 03:06:08;;;;;;;43.80;24.32;;;;;;;1.36;99.74;99464.88;1696472;84;27307;-58
2022/12/07 03:09:14;;;;;;;39.45;23.07;;;;;;;1.37;99.81;99465.16;1696558;84;25528;-64
2022/12/07 03:11:55;;;;;;;44.13;23.25;;;;;;;1.40;99.87;99461.95;1696613;84;25490;-58
2022/12/07 03:14:32;;;;;;;42.45;22.87;;;;;;;1.44;99.92;99467.80;1696528;84;25635;-58
2022/12/07 03:17:04;;;;;;;38.78;23.00;;;;;;;1.46;100.00;99460.86;1696799;84;25614;-58
2022/12/07 03:19:34;;;;;;;37.15;21.42;;;;;;;1.47;100.00;99457.93;1686885;84;27828;-58
2022/12/07 03:22:06;;;;;;;34.63;20.52;;;;;;;1.50;100.00;99460.61;1696651;84;25610;-58
2022/12/07 03:24:53;;;;;;;29.87;17.95;;;;;;;1.52;100.00;99461.13;1696746;84;25534;-58
2022/12/07 03:27:34;;;;;;;34.90;20.20;;;;;;;1.54;100.00;99464.87;1687821;84;26009;-56
2022/12/07 03:30:18;;;;;;;29.85;19.15;;;;;;;1.55;100.00;99466.45;1695701;84;25440;-57
2022/12/07 03:33:08;;;;;;;23.22;14.85;;;;;;;1.56;100.00;99458.18;1695739;84;27343;-55
2022/12/07 03:36:03;;;;;;;24.18;14.78;;;;;;;1.57;100.00;99457.12;1695647;84;25714;-54
2022/12/07 03:38:50;;;;;;;19.80;12.33;;;;;;;1.57;100.00;99458.46;1723196;79;25407;-56
2022/12/07 03:41:29;;;;;;;19.02;12.45;;;;;;;1.57;100.00;99458.46;1806418;79;25601;-57
2022/12/07 03:43:58;;;;;;;20.25;12.33;;;;;;;1.59;100.00;99454.20;1806367;79;25518;-56
2022/12/07 03:46:53;;;;;;;17.42;12.37;;;;;;;1.59;100.00;99450.98;1806244;79;27316;-55
2022/12/07 03:49:46;;;;;;;19.02;11.65;;;;;;;1.60;100.00;99451.77;1806312;78;25548;-58
2022/12/07 03:52:30;;;;;;;17.25;11.57;;;;;;;1.62;100.00;99449.66;1806253;78;25365;-57
2022/12/07 03:55:11;;;;;;;17.32;11.93;;;;;;;1.60;99.98;99445.93;1806056;78;25619;-58
2022/12/07 03:57:41;;;;;;;19.42;11.60;;;;;;;1.57;99.80;99442.47;1806386;78;25596;-56
2022/12/07 04:00:11;;;;;;;17.80;11.45;;;;;;;1.57;99.76;99448.34;1806297;79;27308;-58
2022/12/07 04:02:38;;;;;;;15.50;10.98;;;;;;;1.55;99.74;99445.94;1806227;79;25514;-57
2022/12/07 04:05:07;;;;;;;16.42;10.63;;;;;;;1.53;99.59;99444.59;1806289;79;25380;-54
2022/12/07 04:07:34;;;;;;;19.50;11.85;;;;;;;1.52;99.61;99442.47;1806351;79;29879;-57
2022/12/07 04:10:00;;;;;;;14.65;10.35;;;;;;;1.51;99.53;99442.74;1806277;79;25608;-55
2022/12/07 04:12:26;;;;;;;17.23;11.53;;;;;;;1.51;99.54;99437.41;1806268;79;27392;-58
2022/12/07 04:14:52;;;;;;;19.40;13.60;;;;;;;1.51;99.56;99441.41;1806171;79;25609;-55
2022/12/07 04:17:19;;;;;;;21.40;13.75;;;;;;;1.49;99.51;99442.47;1806268;79;25367;-56
2022/12/07 04:19:45;;;;;;;21.40;13.70;;;;;;;1.48;99.48;99443.55;1806247;79;25922;-54
2022/12/07 04:22:12;;;;;;;21.33;13.55;;;;;;;1.48;99.48;99446.73;1806248;79;25443;-54
2022/12/07 04:24:40;;;;;;;18.98;12.00;;;;;;;1.47;99.50;99445.94;1806220;79;27340;-54
2022/12/07 04:27:06;;;;;;;17.10;12.40;;;;;;;1.45;99.36;99438.75;1806103;79;25387;-54
2022/12/07 04:29:33;;;;;;;20.43;11.10;;;;;;;1.44;99.33;99438.48;1806167;79;25588;-56
2022/12/07 04:31:59;;;;;;;14.43;10.28;;;;;;;1.40;99.22;99437.43;1806146;79;25610;-55
2022/12/07 04:34:27;;;;;;;16.32;11.40;;;;;;;1.39;99.25;99433.70;1806295;78;25590;-56
2022/12/07 04:36:53;;;;;;;16.37;10.08;;;;;;;1.37;99.33;99435.30;1806241;79;27336;-57
2022/12/07 04:39:31;;;;;;;16.32;10.58;;;;;;;1.35;99.27;99424.11;1806174;78;25586;-57
2022/12/07 04:42:00;;;;;;;15.38;10.35;;;;;;;1.34;99.30;99433.16;1806377;79;25529;-57
2022/12/07 04:44:29;;;;;;;13.80;9.50;;;;;;;1.32;99.26;99430.52;1806368;79;26174;-56
2022/12/07 04:46:57;;;;;;;13.48;9.45;;;;;;;1.30;99.25;99431.57;1806432;79;26481;-55
2022/12/07 04:49:25;;;;;;;13.18;9.30;;;;;;;1.27;99.16;99425.44;1806255;78;27649;-58
2022/12/07 04:51:52;;;;;;;15.45;9.38;;;;;;;1.25;99.10;99428.13;1806123;79;25548;-57
2022/12/07 04:54:19;;;;;;;13.70;9.03;;;;;;;1.22;99.03;99432.65;1806178;79;25423;-53
2022/12/07 04:56:47;;;;;;;12.33;9.08;;;;;;;1.17;98.91;99429.45;1806088;79;25738;-53
2022/12/07 04:59:16;;;;;;;13.22;9.13;;;;;;;1.14;99.06;99431.31;1806286;78;25598;-55
2022/12/07 05:01:44;;;;;;;;;;;;;;;1.13;99.05;99431.06;1795381;79;27292;-54
2022/12/07 05:04:12;;;;;;;13.70;8.83;;;;;;;1.11;99.08;99430.53;1806159;79;25596;-57
2022/12/07 05:06:38;;;;;;;14.87;8.40;;;;;;;1.07;99.07;99420.13;1806181;79;25448;-54
2022/12/07 05:09:06;;;;;;;15.20;9.35;;;;;;;1.07;99.22;99414.80;1806226;78;25613;-58
2022/12/07 05:11:38;;;;;;;12.78;8.78;;;;;;;1.05;99.16;99413.73;1806221;78;25541;-56
2022/12/07 05:14:19;;;;;;;12.33;8.60;;;;;;;1.03;99.11;99416.41;1806345;79;27953;-58
2022/12/07 05:16:50;;;;;;;11.60;8.30;;;;;;;1.02;99.17;99414.30;1806163;78;25760;-57
2022/12/07 05:19:19;;;;;;;11.85;8.30;;;;;;;1.02;99.26;99414.80;1806285;78;25544;-57
2022/12/07 05:21:48;;;;;;;12.43;8.20;;;;;;;1.00;99.33;99407.63;1806315;79;26348;-56
2022/12/07 05:24:16;;;;;;;12.50;7.72;;;;;;;0.99;99.33;99405.50;1806253;79;25399;-58
2022/12/07 05:26:45;;;;;;;12.30;8.50;;;;;;;0.95;99.31;99407.08;1806178;79;27310;-58
2022/12/07 05:29:17;;;;;;;12.23;8.28;;;;;;;0.96;99.39;99409.23;1806254;79;29583;-57
2022/12/07 05:31:45;;;;;;;11.73;7.72;;;;;;;0.95;99.38;99404.42;1806164;79;25632;-58
2022/12/07 05:34:14;;;;;;;13.05;8.48;;;;;;;0.95;99.45;99412.95;1806310;79;25635;-58
2022/12/07 05:36:41;;;;;;;11.08;8.05;;;;;;;0.93;99.43;99411.34;1806223;78;25406;-57
2022/12/07 05:39:09;;;;;;;13.13;9.00;;;;;;;0.92;99.44;99412.97;1806183;79;27520;-56
2022/12/07 05:44:22;;;;;;;11.97;8.30;;;;;;;0.90;99.40;99407.90;1806249;79;25403;-58
2022/12/07 05:46:48;;;;;;;11.83;7.70;;;;;;;0.89;99.37;99413.48;1792884;79;26179;-58
2022/12/07 05:49:16;;;;;;;11.65;7.35;;;;;;;0.88;99.43;99415.88;1806212;79;25616;-55
2022/12/07 05:51:43;;;;;;;11.18;7.58;;;;;;;0.85;99.39;99417.22;1806103;78;27379;-57
2022/12/07 05:54:10;;;;;;;12.63;8.20;;;;;;;0.81;99.41;99410.02;1806103;79;25593;-56
2022/12/07 05:56:36;;;;;;;10.05;7.25;;;;;;;0.83;99.45;99417.20;1806179;77;25614;-56
2022/12/07 06:02:08;;;;;;;13.15;8.43;;;;;;;0.79;99.37;99420.14;1806215;79;25579;-59
2022/12/07 06:04:42;;;;;;;11.10;7.47;;;;;;;0.77;99.37;99418.25;1804671;78;27810;-54
2022/12/07 06:07:13;;;;;;;10.75;7.60;;;;;;;0.76;99.29;99416.67;1806199;79;25547;-55
2022/12/07 06:09:41;;;;;;;12.53;8.25;;;;;;;0.73;99.23;99413.48;1806231;78;25459;-56
2022/12/07 06:14:59;;;;;;;11.70;7.53;;;;;;;0.66;99.18;99415.58;1806244;79;25599;-56
2022/12/07 06:17:27;;;;;;;10.75;7.72;;;;;;;0.62;99.10;99417.19;1806236;78;27313;-58
2022/12/07 06:19:53;;;;;;;13.83;8.75;;;;;;;0.60;99.11;99415.87;1806144;78;25380;-57
2022/12/07 06:22:20;;;;;;;10.75;7.70;;;;;;;0.58;99.17;99420.63;1806157;79;25367;-57
2022/12/07 06:24:46;;;;;;;12.03;8.48;;;;;;;0.54;99.15;99412.38;1806148;79;25531;-57
2022/12/07 06:27:14;;;;;;;10.25;7.87;;;;;;;0.51;99.17;99414.23;1806194;79;25604;-56
2022/12/07 06:29:40;;;;;;;14.18;8.90;;;;;;;0.52;99.34;99414.51;1806094;78;27295;-57
2022/12/07 06:32:08;;;;;;;12.90;8.18;;;;;;;0.51;99.34;99414.23;1805979;78;25518;-56
2022/12/07 06:34:36;;;;;;;13.90;8.70;;;;;;;0.49;99.35;99411.04;1806151;79;25456;-55
2022/12/07 06:37:02;;;;;;;13.03;8.35;;;;;;;0.49;99.34;99408.38;1806102;79;25722;-56
2022/12/07 06:39:31;;;;;;;12.55;8.33;;;;;;;0.50;99.41;99411.32;1806182;78;25545;-53
2022/12/07 06:41:59;;;;;;;13.95;9.53;;;;;;;0.49;99.43;99411.83;1806170;78;27630;-57
2022/12/07 06:44:26;;;;;;;15.15;8.85;;;;;;;0.46;99.36;99406.23;1806011;79;25597;-55
2022/12/07 06:46:54;;;;;;;16.32;10.25;;;;;;;0.48;99.37;99408.92;1792561;79;25470;-56
2022/12/07 06:49:21;;;;;;;14.58;9.23;;;;;;;0.46;99.36;99407.06;1806269;79;25640;-55
2022/12/07 06:51:47;;;;;;;16.10;9.80;;;;;;;0.45;99.28;99408.65;1806277;79;25535;-56
2022/12/07 06:54:17;;;;;;;14.80;9.93;;;;;;;0.43;99.26;99405.45;1806292;79;27953;-57
2022/12/07 06:56:44;;;;;;;;;;;;;;;0.40;99.29;99402.78;1818464;78;25441;-57
2022/12/07 06:59:11;;;;;;;14.95;9.65;;;;;;;0.41;99.25;99404.89;1823561;78;25596;-54
2022/12/07 07:01:38;;;;;;;15.00;9.18;;;;;;;0.39;99.37;99403.83;1823557;78;25676;-55
2022/12/07 07:04:05;;;;;;;17.27;10.53;;;;;;;0.39;99.45;99403.04;1801563;78;25788;-56
2022/12/07 07:06:32;;;;;;;17.42;10.45;;;;;;;0.35;99.38;99402.23;1822836;78;28205;-56
2022/12/07 07:08:59;;;;;;;15.85;10.10;;;;;;;0.34;99.49;99400.65;1822669;78;25619;-53
2022/12/07 07:11:27;;;;;;;14.83;9.75;;;;;;;0.36;99.54;99401.17;1822794;78;26079;-56
2022/12/07 07:13:56;;;;;;;16.35;10.68;;;;;;;0.34;99.50;99403.31;1822764;78;25651;-56
2022/12/07 07:16:21;;;;;;;15.20;10.68;;;;;;;0.33;99.49;99407.02;1822562;78;25634;-55
2022/12/07 07:18:48;;;;;;;16.15;10.28;;;;;;;0.30;99.48;99402.75;1823322;78;27295;-53
2022/12/07 07:21:14;;;;;;;18.15;10.85;;;;;;;0.31;99.61;99399.05;1823400;78;25437;-56
2022/12/07 07:23:41;;;;;;;17.73;10.75;;;;;;;0.30;99.60;99403.55;1823500;78;25426;-55
2022/12/07 07:26:08;;;;;;;17.82;11.30;;;;;;;0.29;99.66;99397.97;1823472;78;25557;-55
2022/12/07 07:28:36;;;;;;;13.70;9.88;;;;;;;0.30;99.65;99398.77;1823524;78;25583;-56
2022/12/07 07:31:03;;;;;;;17.65;10.55;;;;;;;0.29;99.75;99398.48;1823465;78;27363;-55
2022/12/07 07:33:30;;;;;;;16.00;10.65;;;;;;;0.26;99.83;99399.03;1823421;78;25608;-57
2022/12/07 07:35:58;;;;;;;15.45;10.55;;;;;;;0.27;99.85;99401.41;1823487;78;25624;-53
2022/12/07 07:38:24;;;;;;;15.08;9.88;;;;;;;0.27;99.87;99403.28;1823453;78;25746;-57
2022/12/07 07:40:51;;;;;;;15.70;9.95;;;;;;;0.26;99.89;99400.36;1823513;78;25556;-56
2022/12/07 07:43:17;;;;;;;16.15;10.43;;;;;;;0.27;99.95;99400.08;1823403;78;27660;-56
2022/12/07 07:45:45;;;;;;;18.00;11.12;;;;;;;0.29;100.00;99397.16;1823405;78;26109;-56
2022/12/07 07:48:12;;;;;;;15.88;10.45;;;;;;;0.31;100.00;99405.70;1823735;78;25649;-56
2022/12/07 07:50:39;;;;;;;16.97;11.00;;;;;;;0.31;100.00;99397.72;1823402;78;26209;-56
2022/12/07 07:53:06;;;;;;;16.35;10.43;;;;;;;0.29;100.00;99399.30;1823512;78;25212;-58
2022/12/07 07:55:34;;;;;;;16.87;10.53;;;;;;;0.30;100.00;99402.75;1823466;78;27998;-55
2022/12/07 07:58:00;;;;;;;18.60;10.88;;;;;;;0.29;100.00;99399.81;1807158;78;25612;-56
2022/12/07 08:00:27;;;;;;;18.17;10.48;;;;;;;0.30;100.00;99405.42;1806213;79;25603;-55
2022/12/07 08:02:55;;;;;;;15.93;10.23;;;;;;;0.28;100.00;99403.02;1806166;79;25624;-55
2022/12/07 08:05:22;;;;;;;15.78;10.25;;;;;;;0.30;100.00;99404.88;1806296;79;25601;-55
2022/12/07 08:07:49;;;;;;;16.27;9.95;;;;;;;0.31;100.00;99405.16;1806280;79;27393;-55
2022/12/07 08:10:16;;;;;;;17.20;10.35;;;;;;;0.32;100.00;99393.98;1806190;78;25361;-54
2022/12/07 08:15:31;;;;;;;15.18;10.38;;;;;;;0.35;100.00;99400.11;1806237;79;25608;-55
2022/12/07 08:17:59;;;;;;;16.23;10.55;;;;;;;0.36;100.00;99408.37;1806438;79;25598;-56
2022/12/07 08:20:31;;;;;;;17.57;10.58;;;;;;;0.38;100.00;99412.10;1806231;79;27997;-57
2022/12/07 08:22:59;;;;;;;17.12;10.43;;;;;;;0.40;100.00;99410.76;1805328;78;25791;-53
2022/12/07 08:25:28;;;;;;;17.35;10.82;;;;;;;0.40;100.00;99406.77;1806315;79;25542;-56
2022/12/07 08:27:56;;;;;;;17.65;11.18;;;;;;;0.41;100.00;99409.71;1806255;79;25766;-57
2022/12/07 08:30:24;;;;;;;18.57;11.75;;;;;;;0.47;100.00;99417.16;1806326;78;25454;-57
2022/12/07 08:32:53;;;;;;;18.30;10.28;;;;;;;0.49;100.00;99411.83;1806394;79;27509;-56
2022/12/07 08:35:21;;;;;;;18.20;10.75;;;;;;;0.54;100.00;99415.04;1806198;79;25633;-54
2022/12/07 08:37:49;;;;;;;15.48;10.75;;;;;;;0.53;100.00;99414.25;1806272;78;25462;-56
2022/12/07 08:40:18;;;;;;;20.15;11.18;;;;;;;0.60;100.00;99418.53;1806206;79;26344;-56
2022/12/07 12:35:28;;;;;;;19.40;13.28;;;;;;;2.33;97.12;99325.03;1745955;80;25373;-64
2022/12/07 12:37:58;;;;;;;21.40;12.85;;;;;;;2.31;96.60;99324.52;1753654;81;25430;-65
2022/12/07 12:40:33;;;;;;;19.95;12.25;;;;;;;2.28;96.34;99323.73;1740521;82;25573;-63
2022/12/07 12:43:00;;;;;;;21.50;12.60;;;;;;;2.23;96.34;99325.89;1741894;81;25154;-64
2022/12/07 12:45:33;;;;;;;22.42;12.25;;;;;;;2.15;96.03;99332.63;1731600;82;27345;-62
2022/12/07 12:48:25;;;;;;;19.82;12.45;;;;;;;2.08;96.11;99326.80;1741205;82;25642;-64
2022/12/07 12:51:13;;;;;;;24.72;14.20;;;;;;;2.02;96.32;99326.02;1742071;82;25549;-62
2022/12/07 12:53:41;;;;;;;23.73;14.53;;;;;;;1.96;96.58;99323.65;1742419;81;25731;-60
2022/12/07 12:56:34;;;;;;;24.30;14.78;;;;;;;1.92;96.84;99327.41;1731706;82;25583;-61
2022/12/07 12:59:33;;;;;;;24.25;14.30;;;;;;;1.93;97.25;99324.22;1742092;81;27348;-64
2022/12/07 13:02:37;;;;;;;26.00;14.18;;;;;;;1.90;97.42;99334.89;1663203;85;25755;-62
2022/12/07 13:05:13;;;;;;;22.10;14.15;;;;;;;1.88;97.57;99322.92;1683249;85;25466;-62
2022/12/07 13:07:55;;;;;;;23.10;14.23;;;;;;;1.84;97.71;99328.01;1654081;85;26696;-63
2022/12/07 13:10:32;;;;;;;25.25;15.00;;;;;;;1.82;97.81;99340.28;1683532;85;25687;-62
2022/12/07 13:13:18;;;;;;;23.10;14.30;;;;;;;1.79;97.91;99318.70;1660155;85;27932;-62
2022/12/07 13:16:11;;;;;;;23.85;13.83;;;;;;;1.76;98.02;99317.36;1683421;85;25542;-60
2022/12/07 13:18:38;;;;;;;24.18;14.15;;;;;;;1.76;98.05;99320.58;1683513;85;25455;-62
2022/12/07 13:21:14;;;;;;;23.98;14.58;;;;;;;1.73;98.15;99317.91;1683453;85;25679;-61
2022/12/07 13:24:00;;;;;;;21.00;13.30;;;;;;;1.73;98.19;99325.12;1683494;85;25474;-63
2022/12/07 13:26:37;;;;;;;21.07;13.15;;;;;;;1.72;98.24;99318.17;1683474;85;27426;-62
2022/12/07 13:29:15;;;;;;;22.42;12.65;;;;;;;1.70;98.21;99317.66;1683452;85;25605;-61
2022/12/07 13:31:53;;;;;;;20.52;13.25;;;;;;;1.67;98.39;99317.69;1682751;85;25649;-61
2022/12/07 13:34:41;;;;;;;24.02;12.90;;;;;;;1.66;98.36;99316.87;1684369;84;26275;-64
2022/12/07 13:37:28;;;;;;;22.25;12.73;;;;;;;1.65;98.36;99315.80;1696167;84;25541;-61
2022/12/07 13:40:14;;;;;;;24.85;13.60;;;;;;;1.64;98.47;99313.69;1755719;81;27407;-62
2022/12/07 13:50:59;;;;;;;20.80;12.28;;;;;;;1.59;98.38;99323.03;1759542;77;27058;-63
2022/12/07 13:53:30;;;;;;;22.23;12.97;;;;;;;1.58;98.39;99325.42;1738896;82;27319;-62
2022/12/07 13:55:54;;;;;;;20.75;12.75;;;;;;;1.57;98.34;99324.39;1735362;81;25909;-60
2022/12/07 13:58:22;;;;;;;21.00;13.10;;;;;;;1.58;98.39;99331.30;1733476;82;25673;-62
2022/12/07 14:00:49;;;;;;;22.93;14.05;;;;;;;1.56;98.36;99321.45;1734799;82;25614;-61
2022/12/07 14:03:21;;;;;;;20.70;13.08;;;;;;;1.55;98.50;99328.66;1735728;82;25428;-60
2022/12/07 14:06:05;;;;;;;22.35;13.68;;;;;;;1.54;98.34;99322.27;1734934;82;27970;-63
2022/12/07 14:08:31;;;;;;;21.33;12.80;;;;;;;1.52;98.26;99328.41;1734483;82;25809;-62
2022/12/07 14:10:59;;;;;;;22.13;12.68;;;;;;;1.49;98.29;99319.87;1734874;82;25498;-61
2022/12/07 14:13:46;;;;;;;26.17;13.65;;;;;;;1.49;98.37;99325.20;1733600;82;25661;-61
2022/12/07 14:16:35;;;;;;;22.35;13.78;;;;;;;1.47;98.39;99331.34;1735014;82;25573;-61
2022/12/07 14:19:06;;;;;;;23.60;13.37;;;;;;;1.46;98.43;99318.28;1735189;82;27737;-60
2022/12/07 14:21:34;;;;;;;20.08;13.13;;;;;;;1.42;98.48;99312.70;1734681;82;25638;-60
2022/12/07 14:24:20;;;;;;;20.37;10.93;;;;;;;1.44;98.64;99322.55;1735672;82;25570;-62
2022/12/07 14:26:50;;;;;;;20.25;12.82;;;;;;;1.41;98.65;99319.09;1734450;82;25630;-61
2022/12/07 14:29:31;;;;;;;21.60;13.10;;;;;;;1.42;98.73;99321.24;1734729;82;25600;-62
2022/12/07 14:32:02;;;;;;;35.35;21.62;;;;;;;1.41;98.80;99325.75;1733366;82;27403;-63
2022/12/07 14:34:28;;;;;;;23.35;15.28;;;;;;;1.40;98.78;99327.38;1734229;82;25514;-59
2022/12/07 14:36:54;;;;;;;24.12;15.18;;;;;;;1.37;98.73;99327.38;1736262;82;25650;-63
2022/12/07 14:39:20;;;;;;;19.80;13.43;;;;;;;1.35;98.87;99334.06;1734300;82;25643;-63
2022/12/07 14:41:50;;;;;;;23.57;14.53;;;;;;;1.33;98.74;99330.33;1735507;82;25637;-64
2022/12/07 14:44:19;;;;;;;;;;;;;;;1.32;98.83;99329.27;1736989;82;27326;-63
2022/12/07 14:46:47;;;;;;;21.60;13.35;;;;;;;1.31;98.90;99332.45;1735021;81;27182;-63
2022/12/07 14:49:13;;;;;;;21.45;13.45;;;;;;;1.26;98.78;99333.27;1734740;82;25478;-62
2022/12/07 14:51:43;;;;;;;23.25;14.73;;;;;;;1.24;98.68;99329.27;1741783;77;26188;-61
2022/12/07 14:54:20;;;;;;;20.17;13.68;;;;;;;1.22;98.69;99334.08;1763654;78;25700;-63
2022/12/07 14:58:20;;;;;;;25.80;15.55;;;;;;;1.25;98.71;99326.89;1885753;76;34891;-61
2022/12/07 15:00:54;;;;;;;26.10;15.55;;;;;;;1.17;98.69;99331.42;1803181;75;26687;31
2022/12/07 15:03:21;;;;;;;23.55;15.60;;;;;;;1.15;98.60;99334.90;1808397;75;27621;-58
2022/12/07 15:05:48;;;;;;;28.32;16.42;;;;;;;1.12;98.49;99334.89;1818160;78;25600;-59
2022/12/07 15:08:17;;;;;;;25.60;15.95;;;;;;;1.09;98.44;99332.25;1819236;78;25521;-59
2022/12/07 15:10:45;;;;;;;25.68;16.32;;;;;;;1.09;98.62;99331.43;1819262;78;25520;-61
2022/12/07 15:37:56;;;;;;;23.45;15.18;;;;;;;0.88;98.20;99312.82;1818489;78;25573;-64
2022/12/07 15:40:24;;;;;;;26.97;16.40;;;;;;;0.81;98.04;99316.30;1818861;78;25368;-62
2022/12/07 15:42:51;;;;;;;27.30;16.87;;;;;;;0.74;98.07;99319.77;1818735;78;25549;-64
2022/12/07 15:45:21;;;;;;;29.50;18.52;;;;;;;0.72;98.22;99310.72;1818317;78;25869;-64
2022/12/07 15:47:48;;;;;;;27.75;17.45;;;;;;;0.70;98.47;99316.06;1818862;78;27616;-64
2022/12/07 15:50:22;;;;;;;30.30;17.52;;;;;;;0.70;98.67;99320.05;1818138;78;25538;-65
2022/12/07 15:52:50;;;;;;;25.52;15.83;;;;;;;0.69;98.67;99313.91;1819061;78;25628;-65
2022/12/07 15:55:17;;;;;;;26.12;16.85;;;;;;;0.68;98.61;99311.52;1818638;78;25803;-67
2022/12/07 15:57:43;;;;;;;28.32;17.45;;;;;;;0.66;98.64;99310.45;1791278;78;25652;-66
2022/12/07 16:00:13;;;;;;;28.60;17.37;;;;;;;0.64;98.73;99317.12;1818658;78;28136;-64
2022/12/07 16:02:40;;;;;;;;;;;;;;;0.62;98.81;99318.71;1821177;78;25572;-63
2022/12/07 16:05:09;;;;;;;27.82;17.60;;;;;;;0.60;98.96;99320.05;1818702;78;25532;-66
2022/12/07 16:07:36;;;;;;;28.87;17.57;;;;;;;0.59;99.17;99320.56;1818687;78;25778;-66
2022/12/07 16:10:05;;;;;;;29.85;17.55;;;;;;;0.59;99.25;99313.91;1818089;78;25451;-58
2022/12/07 16:12:31;;;;;;;27.25;16.85;;;;;;;0.59;99.40;99318.45;1818208;78;27473;-59
2022/12/07 16:14:58;;;;;;;27.32;17.37;;;;;;;0.58;99.45;99312.34;1817997;78;25847;-59
2022/12/07 16:17:25;;;;;;;28.75;16.90;;;;;;;0.59;99.65;99309.92;1818186;78;25654;-60
2022/12/07 16:19:52;;;;;;;26.93;17.82;;;;;;;0.59;99.64;99308.59;1818086;78;25519;-58
2022/12/07 16:22:18;;;;;;;31.60;18.40;;;;;;;0.60;99.72;99308.87;1818111;78;25523;-60
2022/12/07 16:24:45;;;;;;;33.35;18.05;;;;;;;0.60;99.74;99308.08;1818004;78;27568;-60
2022/12/07 16:27:11;;;;;;;30.10;18.85;;;;;;;0.62;99.92;99312.06;1818004;78;25352;-59